createdAt,value
2018-09-18T00:01:21.754Z,15.53
2018-09-18T00:03:50.427Z,19.87
2018-09-18T00:06:19.113Z,20.00
2018-09-18T00:08:47.694Z,19.60
2018-09-18T00:11:16.073Z,20.10
2018-09-18T00:13:44.759Z,17.40
2018-09-18T00:16:13.337Z,18.90
2018-09-18T00:18:42.031Z,23.07
2018-09-18T00:21:10.611Z,16.57
2018-09-18T00:23:38.984Z,19.03
2018-09-18T00:26:07.889Z,20.57
2018-09-18T00:28:36.361Z,19.77
2018-09-18T00:31:04.943Z,19.33
2018-09-18T00:33:33.569Z,16.03
2018-09-18T00:36:02.213Z,17.50
2018-09-18T00:38:30.692Z,16.43
2018-09-18T00:40:59.171Z,18.57
2018-09-18T00:43:27.757Z,17.10
2018-09-18T00:45:56.443Z,19.07
2018-09-18T00:48:25.129Z,17.23
2018-09-18T00:50:53.507Z,16.33
2018-09-18T00:53:22.093Z,17.50
2018-09-18T00:55:50.682Z,15.33
2018-09-18T00:58:19.049Z,17.90
2018-09-18T01:00:47.839Z,15.83
2018-09-18T01:03:16.322Z,17.37
2018-09-18T01:05:44.902Z,15.33
2018-09-18T01:08:13.691Z,14.10
2018-09-18T01:10:42.373Z,14.97
2018-09-18T01:13:11.160Z,19.27
2018-09-18T01:15:39.512Z,16.60
2018-09-18T01:18:08.429Z,19.73
2018-09-18T01:20:37.027Z,17.63
2018-09-18T01:23:05.697Z,22.27
2018-09-18T01:25:34.178Z,21.40
2018-09-18T01:28:02.653Z,20.23
2018-09-18T01:30:31.189Z,18.20
2018-09-18T01:32:59.929Z,20.47
2018-09-18T01:35:28.321Z,18.27
2018-09-18T01:37:57.092Z,16.63
2018-09-18T01:40:25.675Z,18.80
2018-09-18T01:42:54.362Z,20.83
2018-09-18T01:45:23.049Z,17.30
2018-09-18T01:47:51.733Z,20.63
2018-09-18T01:50:20.426Z,19.67
2018-09-18T01:52:48.900Z,17.73
2018-09-18T01:55:17.483Z,18.63
2018-09-18T01:57:46.167Z,17.83
2018-09-18T02:00:14.753Z,14.80
2018-09-18T02:02:43.434Z,17.10
2018-09-18T02:05:12.018Z,16.00
2018-09-18T02:07:40.498Z,17.90
2018-09-18T02:10:08.974Z,17.00
2018-09-18T02:12:37.463Z,17.33
2018-09-18T02:15:06.257Z,14.83
2018-09-18T02:17:34.528Z,14.87
2018-09-18T02:20:03.112Z,12.30
2018-09-18T02:22:31.687Z,12.40
2018-09-18T02:25:00.383Z,16.70
2018-09-18T02:27:28.846Z,14.70
2018-09-18T02:29:57.233Z,11.93
2018-09-18T02:32:25.918Z,12.20
2018-09-18T02:34:54.603Z,11.97
2018-09-18T02:37:23.056Z,11.50
2018-09-18T02:39:51.565Z,13.00
2018-09-18T02:42:20.852Z,12.40
2018-09-18T02:44:49.656Z,14.00
2018-09-18T02:47:18.648Z,11.03
2018-09-18T02:49:47.536Z,15.47
2018-09-18T02:52:15.916Z,14.13
2018-09-18T02:54:44.699Z,11.43
2018-09-18T02:57:13.284Z,11.77
2018-09-18T02:59:41.816Z,13.80
2018-09-18T03:02:10.346Z,13.03
2018-09-18T03:04:39.032Z,10.20
2018-09-18T03:07:07.719Z,12.23
2018-09-18T03:09:36.206Z,11.43
2018-09-18T03:12:04.782Z,14.47
2018-09-18T03:14:33.261Z,12.97
2018-09-18T03:17:01.798Z,12.70
2018-09-18T03:19:30.338Z,12.37
2018-09-18T03:21:59.011Z,11.53
2018-09-18T03:24:28.004Z,11.47
2018-09-18T03:26:56.483Z,11.53
2018-09-18T03:29:25.071Z,11.93
2018-09-18T03:31:53.649Z,14.20
2018-09-18T03:34:22.050Z,11.77
2018-09-18T03:36:50.817Z,13.43
2018-09-18T03:39:19.339Z,17.00
2018-09-18T03:41:47.699Z,13.87
2018-09-18T03:44:16.259Z,12.93
2018-09-18T03:46:44.663Z,10.73
2018-09-18T03:49:13.214Z,10.80
2018-09-18T03:51:41.698Z,11.77
2018-09-18T03:54:10.281Z,13.03
2018-09-18T03:56:38.767Z,10.17
2018-09-18T03:59:07.347Z,12.67
2018-09-18T04:01:35.928Z,12.63
2018-09-18T04:04:04.626Z,11.57
2018-09-18T04:06:33.197Z,10.17
2018-09-18T04:09:01.684Z,10.93
2018-09-18T04:11:30.158Z,12.77
2018-09-18T04:13:58.740Z,11.37
2018-09-18T04:16:27.223Z,14.83
2018-09-18T04:18:56.113Z,13.60
2018-09-18T04:21:29.894Z,15.93
2018-09-18T04:23:58.705Z,13.63
2018-09-18T04:26:27.196Z,10.80
2018-09-18T04:28:55.666Z,11.23
2018-09-18T04:31:24.265Z,11.73
2018-09-18T04:33:52.832Z,11.20
2018-09-18T04:36:21.315Z,13.37
2018-09-18T04:38:50.121Z,17.80
2018-09-18T04:41:18.685Z,11.27
2018-09-18T04:43:47.169Z,12.87
2018-09-18T04:46:15.747Z,13.30
2018-09-18T04:49:20.540Z,15.90
2018-09-18T04:52:23.955Z,18.33
2018-09-18T04:54:52.490Z,12.80
2018-09-18T04:57:21.145Z,13.70
2018-09-18T04:59:49.943Z,16.07
2018-09-18T05:02:18.520Z,15.70
2018-09-18T05:04:47.099Z,14.97
2018-09-18T05:07:15.684Z,16.67
2018-09-18T05:09:44.265Z,12.80
2018-09-18T05:12:12.749Z,15.13
2018-09-18T05:14:41.532Z,17.47
2018-09-18T05:17:10.013Z,14.07
2018-09-18T05:19:39.220Z,15.20
2018-09-18T05:22:07.875Z,16.43
2018-09-18T05:24:36.823Z,14.27
2018-09-18T05:27:05.676Z,17.73
2018-09-18T05:29:34.241Z,20.57
2018-09-18T05:32:02.944Z,16.20
2018-09-18T05:34:31.638Z,17.17
2018-09-18T05:36:59.965Z,15.77
2018-09-18T05:39:28.898Z,19.03
2018-09-18T05:41:57.628Z,23.50
2018-09-18T05:44:26.374Z,22.90
2018-09-18T05:46:55.163Z,21.33
2018-09-18T05:49:25.191Z,19.03
2018-09-18T05:51:53.865Z,18.57
2018-09-18T05:54:22.445Z,17.53
2018-09-18T05:56:50.924Z,14.00
2018-09-18T05:59:19.565Z,17.17
2018-09-18T06:01:48.295Z,14.37
2018-09-18T06:04:16.770Z,22.40
2018-09-18T06:06:45.258Z,20.27
2018-09-18T06:09:13.990Z,22.43
2018-09-18T06:11:42.627Z,24.40
2018-09-18T06:14:11.344Z,21.03
2018-09-18T06:16:39.812Z,21.87
2018-09-18T06:19:08.426Z,20.53
2018-09-18T06:21:37.062Z,18.90
2018-09-18T06:24:05.747Z,24.33
2018-09-18T06:26:34.274Z,26.30
2018-09-18T06:29:02.670Z,27.07
2018-09-18T06:31:31.209Z,29.03
2018-09-18T06:33:59.669Z,32.67
2018-09-18T06:36:28.251Z,27.53
2018-09-18T06:38:56.733Z,34.47
2018-09-18T06:41:25.268Z,33.73
2018-09-18T06:43:53.799Z,36.80
2018-09-18T06:46:22.379Z,46.30
2018-09-18T06:48:50.961Z,36.93
2018-09-18T06:51:19.604Z,34.77
2018-09-18T06:53:59.450Z,34.13
2018-09-18T06:56:55.933Z,37.90
2018-09-18T07:02:35.360Z,39.83
2018-09-18T07:05:28.210Z,47.37
2018-09-18T07:08:08.311Z,44.20
2018-09-18T07:10:59.418Z,35.47
2018-09-18T07:13:35.728Z,33.57
2018-09-18T07:16:19.143Z,35.80
2018-09-18T07:18:47.734Z,38.27
2018-09-18T07:21:16.420Z,30.13
2018-09-18T07:23:44.591Z,39.17
2018-09-18T07:26:12.801Z,28.93
2018-09-18T07:28:41.265Z,38.30
2018-09-18T07:31:09.597Z,27.20
2018-09-18T07:33:38.048Z,27.33
2018-09-18T07:36:06.823Z,16.30
2018-09-18T07:38:35.371Z,16.67
2018-09-18T07:41:03.987Z,15.23
2018-09-18T07:43:32.740Z,14.30
2018-09-18T07:46:01.113Z,17.83
2018-09-18T07:48:38.109Z,20.23
2018-09-18T07:51:08.136Z,21.03
2018-09-18T07:53:36.598Z,15.50
2018-09-18T07:56:04.824Z,16.93
2018-09-18T07:58:33.014Z,17.13
2018-09-18T08:01:01.454Z,18.03
2018-09-18T08:03:30.001Z,20.40
2018-09-18T08:05:58.691Z,15.07
2018-09-18T08:08:27.182Z,19.57
2018-09-18T08:10:55.815Z,14.50
2018-09-18T08:13:24.653Z,18.67
2018-09-18T08:15:53.087Z,13.93
2018-09-18T08:18:21.564Z,17.87
2018-09-18T08:20:50.201Z,15.33
2018-09-18T08:23:18.686Z,16.83
2018-09-18T08:25:47.269Z,13.27
2018-09-18T08:28:15.867Z,17.80
2018-09-18T08:30:44.075Z,19.30
2018-09-18T08:33:12.694Z,16.53
2018-09-18T08:35:41.482Z,18.40
2018-09-18T08:38:09.675Z,18.20
2018-09-18T08:40:38.359Z,20.10
2018-09-18T08:43:06.731Z,18.20
2018-09-18T08:45:35.510Z,20.30
2018-09-18T08:48:03.897Z,23.13
2018-09-18T08:50:32.170Z,18.33
2018-09-18T08:53:00.389Z,24.83
2018-09-18T08:55:28.871Z,21.97
2018-09-18T08:57:57.237Z,22.13
2018-09-18T09:00:26.159Z,23.43
2018-09-18T09:02:54.628Z,27.83
2018-09-18T09:05:22.997Z,25.93
2018-09-18T09:07:51.820Z,28.40
2018-09-18T09:10:20.874Z,18.20
2018-09-18T09:12:49.406Z,17.03
2018-09-18T09:15:17.861Z,17.93
2018-09-18T09:17:46.391Z,17.77
2018-09-18T09:20:14.520Z,18.03
2018-09-18T09:22:43.030Z,12.70
2018-09-18T09:25:11.266Z,15.53
2018-09-18T09:27:40.114Z,15.13
2018-09-18T09:30:08.379Z,16.33
2018-09-18T09:32:37.113Z,14.47
2018-09-18T09:35:06.822Z,15.27
2018-09-18T09:37:35.471Z,14.27
2018-09-18T09:40:03.870Z,23.20
2018-09-18T09:42:32.063Z,17.20
2018-09-18T09:45:00.736Z,14.27
2018-09-18T09:47:29.371Z,14.80
2018-09-18T09:49:58.051Z,17.23
2018-09-18T09:52:26.533Z,15.73
2018-09-18T09:54:55.014Z,16.47
2018-09-18T09:57:23.701Z,19.43
2018-09-18T09:59:52.281Z,26.73
2018-09-18T10:02:25.893Z,17.70
2018-09-18T10:04:54.285Z,15.90
2018-09-18T10:07:22.841Z,17.00
2018-09-18T10:09:51.222Z,16.00
2018-09-18T10:12:19.599Z,20.07
2018-09-18T10:14:48.158Z,23.00
2018-09-18T10:17:16.767Z,14.20
2018-09-18T10:19:45.353Z,15.73
2018-09-18T10:22:13.934Z,15.20
2018-09-18T10:24:42.428Z,13.27
2018-09-18T10:27:10.897Z,19.23
2018-09-18T10:29:39.392Z,14.10
2018-09-18T10:32:08.063Z,14.93
2018-09-18T10:34:36.642Z,16.30
2018-09-18T10:37:05.337Z,14.07
2018-09-18T10:39:33.908Z,14.33
2018-09-18T10:42:02.570Z,13.53
2018-09-18T10:44:31.001Z,10.38
2018-09-18T10:46:59.332Z,11.25
2018-09-18T10:49:28.124Z,11.22
2018-09-18T10:51:57.372Z,12.15
2018-09-18T10:54:26.226Z,31.93
2018-09-18T10:56:54.812Z,14.98
2018-09-18T10:59:23.704Z,13.18
2018-09-18T11:01:53.067Z,10.32
2018-09-18T11:04:21.296Z,15.03
2018-09-18T11:06:50.274Z,10.75
2018-09-18T11:09:18.786Z,9.38
2018-09-18T11:11:47.285Z,11.53
2018-09-18T11:14:16.501Z,8.33
2018-09-18T11:16:45.212Z,11.03
2018-09-18T11:19:13.639Z,10.25
2018-09-18T11:21:41.987Z,9.40
2018-09-18T11:24:10.728Z,8.28
2018-09-18T11:26:39.203Z,11.50
2018-09-18T11:29:08.110Z,10.05
2018-09-18T11:31:37.021Z,9.48
2018-09-18T11:34:11.083Z,7.72
2018-09-18T11:36:39.735Z,9.70
2018-09-18T11:39:08.299Z,10.65
2018-09-18T11:41:36.889Z,9.03
2018-09-18T11:44:05.367Z,11.57
2018-09-18T11:46:34.201Z,9.78
2018-09-18T11:49:02.864Z,10.70
2018-09-18T11:51:31.521Z,8.98
2018-09-18T11:54:00.107Z,8.80
2018-09-18T11:56:28.628Z,8.53
2018-09-18T11:58:57.278Z,12.18
2018-09-18T12:01:25.854Z,8.13
2018-09-18T12:03:54.359Z,10.40
2018-09-18T12:06:22.814Z,11.20
2018-09-18T12:08:51.801Z,8.45
2018-09-18T12:11:20.333Z,10.35
2018-09-18T12:13:48.975Z,12.37
2018-09-18T12:16:17.660Z,10.87
2018-09-18T12:18:46.219Z,9.70
2018-09-18T12:21:15.236Z,12.97
2018-09-18T12:23:43.920Z,10.77
2018-09-18T12:26:12.605Z,8.85
2018-09-18T12:28:41.315Z,19.77
2018-09-18T12:31:09.975Z,14.75
2018-09-18T12:33:38.566Z,8.33
2018-09-18T12:36:07.467Z,9.50
2018-09-18T12:38:36.107Z,9.93
2018-09-18T12:41:04.719Z,11.63
2018-09-18T12:43:33.395Z,10.53
2018-09-18T12:46:02.194Z,10.50
2018-09-18T12:48:30.342Z,10.37
2018-09-18T12:50:58.680Z,10.67
2018-09-18T12:53:27.285Z,11.07
2018-09-18T12:55:55.509Z,11.80
2018-09-18T12:58:24.156Z,12.60
2018-09-18T13:00:52.669Z,12.43
2018-09-18T13:03:21.885Z,13.80
2018-09-18T13:05:50.180Z,12.10
2018-09-18T13:08:18.500Z,11.93
2018-09-18T13:10:46.607Z,11.20
2018-09-18T13:13:14.760Z,11.37
2018-09-18T13:15:43.246Z,11.70
2018-09-18T13:18:11.845Z,11.03
2018-09-18T13:20:40.303Z,11.63
2018-09-18T13:23:08.508Z,11.73
2018-09-18T13:25:36.636Z,11.07
2018-09-18T13:28:05.189Z,12.60
2018-09-18T13:30:33.899Z,11.60
2018-09-18T13:33:02.561Z,10.63
2018-09-18T13:35:30.886Z,12.97
2018-09-18T13:37:59.363Z,10.37
2018-09-18T13:40:28.048Z,12.03
2018-09-18T13:42:56.752Z,11.50
2018-09-18T13:45:25.521Z,11.80
2018-09-18T13:47:54.004Z,12.97
2018-09-18T13:50:22.655Z,12.13
2018-09-18T13:52:51.371Z,12.53
2018-09-18T13:55:19.985Z,11.93
2018-09-18T13:57:48.449Z,12.23
2018-09-18T14:00:17.223Z,11.73
2018-09-18T14:02:45.934Z,13.90
2018-09-18T14:05:14.496Z,12.03
2018-09-18T14:07:43.075Z,12.40
2018-09-18T14:10:13.604Z,12.70
2018-09-18T14:12:42.170Z,12.37
2018-09-18T14:15:10.894Z,13.13
2018-09-18T14:17:39.356Z,11.60
2018-09-18T14:20:07.763Z,10.77
2018-09-18T14:22:36.724Z,11.43
2018-09-18T14:25:05.182Z,10.83
2018-09-18T14:27:33.686Z,14.43
2018-09-18T14:30:02.473Z,11.63
2018-09-18T14:32:30.972Z,11.13
2018-09-18T14:34:59.641Z,10.27
2018-09-18T14:37:28.222Z,11.43
2018-09-18T14:39:56.745Z,14.10
2018-09-18T14:42:25.130Z,10.37
2018-09-18T14:44:53.664Z,10.50
2018-09-18T14:47:22.350Z,11.63
2018-09-18T14:49:50.852Z,10.87
2018-09-18T14:52:19.516Z,11.53
2018-09-18T14:54:47.997Z,10.67
2018-09-18T14:57:16.483Z,10.63
2018-09-18T14:59:44.651Z,9.60
2018-09-18T15:02:13.341Z,9.70
2018-09-18T15:04:41.968Z,9.77
2018-09-18T15:07:10.198Z,11.40
2018-09-18T15:09:38.881Z,10.13
2018-09-18T15:12:07.022Z,9.63
2018-09-18T15:14:35.195Z,10.80
2018-09-18T15:17:03.430Z,10.95
2018-09-18T15:19:31.651Z,10.25
2018-09-18T15:22:00.285Z,10.85
2018-09-18T15:24:29.045Z,10.88
2018-09-18T15:26:57.735Z,10.72
2018-09-18T15:29:26.424Z,10.55
2018-09-18T15:31:55.003Z,9.90
2018-09-18T15:34:23.386Z,10.03
2018-09-18T15:36:51.962Z,11.00
2018-09-18T15:39:20.446Z,10.75
2018-09-18T15:41:49.030Z,11.30
2018-09-18T15:44:17.721Z,11.08
2018-09-18T15:46:46.201Z,12.18
2018-09-18T15:49:14.883Z,11.73
2018-09-18T15:51:43.714Z,13.00
2018-09-18T15:54:12.265Z,12.40
2018-09-18T15:56:41.039Z,12.57
2018-09-18T15:59:09.623Z,12.00
2018-09-18T16:01:38.008Z,11.85
2018-09-18T16:04:06.482Z,12.00
2018-09-18T16:06:35.162Z,12.03
2018-09-18T16:09:04.881Z,11.80
2018-09-18T16:11:33.873Z,13.10
2018-09-18T16:14:02.286Z,12.33
2018-09-18T16:16:30.776Z,12.40
2018-09-18T16:18:59.408Z,13.90
2018-09-18T16:21:27.990Z,17.30
2018-09-18T16:23:56.574Z,18.23
2018-09-18T16:26:25.288Z,12.80
2018-09-18T16:28:54.056Z,12.95
2018-09-18T16:31:22.839Z,12.40
2018-09-18T16:33:51.255Z,12.37
2018-09-18T16:36:19.805Z,11.93
2018-09-18T16:38:48.383Z,13.07
2018-09-18T16:41:16.964Z,11.83
2018-09-18T16:43:45.452Z,12.03
2018-09-18T16:46:14.030Z,12.40
2018-09-18T16:48:42.714Z,12.63
2018-09-18T16:51:12.121Z,14.83
2018-09-18T16:53:40.699Z,13.23
2018-09-18T16:56:09.493Z,13.57
2018-09-18T16:58:38.020Z,13.60
2018-09-18T17:01:06.754Z,16.37
2018-09-18T17:03:35.236Z,14.00
2018-09-18T17:06:03.819Z,15.30
2018-09-18T17:08:32.409Z,14.10
2018-09-18T17:11:01.090Z,17.27
2018-09-18T17:13:29.790Z,13.17
2018-09-18T17:15:58.662Z,13.47
2018-09-18T17:18:27.495Z,13.27
2018-09-18T17:20:56.067Z,11.53
2018-09-18T17:23:24.420Z,12.03
2018-09-18T17:25:52.914Z,13.10
2018-09-18T17:28:21.669Z,17.47
2018-09-18T17:30:50.265Z,13.13
2018-09-18T17:33:18.854Z,15.03
2018-09-18T17:35:47.532Z,14.53
2018-09-18T17:38:16.218Z,12.90
2018-09-18T17:40:44.801Z,12.77
2018-09-18T17:43:13.490Z,14.13
2018-09-18T17:45:42.113Z,13.80
2018-09-18T17:48:10.656Z,13.67
2018-09-18T17:50:39.242Z,13.03
2018-09-18T17:53:07.838Z,13.00
2018-09-18T17:55:36.361Z,15.90
2018-09-18T17:58:05.292Z,13.07
2018-09-18T18:00:33.872Z,13.20
2018-09-18T18:03:02.453Z,13.87
2018-09-18T18:05:31.198Z,13.83
2018-09-18T18:07:59.733Z,13.43
2018-09-18T18:10:28.616Z,12.53
2018-09-18T18:12:57.467Z,12.80
2018-09-18T18:15:26.193Z,12.93
2018-09-18T18:17:54.675Z,13.13
2018-09-18T18:20:23.557Z,13.00
2018-09-18T18:22:52.154Z,14.38
2018-09-18T18:25:21.136Z,13.90
2018-09-18T18:27:49.732Z,13.27
2018-09-18T18:30:18.508Z,13.23
2018-09-18T18:32:48.789Z,17.00
2018-09-18T18:35:17.021Z,12.50
2018-09-18T18:37:45.264Z,12.70
2018-09-18T18:40:13.469Z,14.10
2018-09-18T18:42:42.033Z,13.40
2018-09-18T18:45:11.373Z,17.20
2018-09-18T18:47:39.704Z,13.07
2018-09-18T18:50:08.407Z,15.67
2018-09-18T18:52:37.048Z,13.80
2018-09-18T18:55:05.562Z,14.07
2018-09-18T18:57:34.453Z,14.10
2018-09-18T19:00:02.943Z,15.60
2018-09-18T19:02:31.117Z,13.10
2018-09-18T19:04:59.790Z,13.87
2018-09-18T19:07:28.591Z,15.23
2018-09-18T19:09:57.191Z,23.40
2018-09-18T19:12:25.710Z,14.40
2018-09-18T19:14:53.853Z,13.63
2018-09-18T19:17:22.065Z,13.17
2018-09-18T19:19:50.776Z,13.83
2018-09-18T19:22:19.372Z,15.60
2018-09-18T19:24:47.836Z,16.73
2018-09-18T19:27:16.650Z,18.23
2018-09-18T19:29:45.214Z,17.17
2018-09-18T19:32:13.798Z,17.00
2018-09-18T19:34:42.300Z,17.20
2018-09-18T19:37:10.963Z,19.20
2018-09-18T19:39:39.861Z,22.63
2018-09-18T19:42:08.106Z,23.20
2018-09-18T19:44:36.922Z,21.27
2018-09-18T19:47:05.139Z,22.60
2018-09-18T19:49:38.028Z,18.87
2018-09-18T19:52:06.490Z,19.03
2018-09-18T19:54:34.697Z,19.33
2018-09-18T19:57:03.136Z,17.93
2018-09-18T19:59:31.726Z,20.03
2018-09-18T20:02:00.049Z,23.13
2018-09-18T20:04:28.395Z,58.03
2018-09-18T20:06:56.554Z,65.53
2018-09-18T20:09:24.854Z,71.77
2018-09-18T20:11:53.375Z,58.20
2018-09-18T20:14:22.078Z,60.70
2018-09-18T20:16:50.644Z,38.07
2018-09-18T20:19:19.714Z,33.30
2018-09-18T20:21:48.244Z,26.83
2018-09-18T20:24:16.612Z,24.93
2018-09-18T20:26:45.282Z,37.73
2018-09-18T20:29:13.968Z,62.20
2018-09-18T20:31:42.465Z,63.47
2018-09-18T20:34:11.138Z,68.53
2018-09-18T20:36:39.614Z,53.07
2018-09-18T20:39:09.209Z,46.23
2018-09-18T20:41:37.592Z,27.53
2018-09-18T20:44:06.006Z,34.23
2018-09-18T20:46:34.178Z,24.17
2018-09-18T20:49:02.363Z,25.30
2018-09-18T20:51:30.547Z,32.10
2018-09-18T20:53:59.244Z,23.13
2018-09-18T20:56:27.511Z,23.93
2018-09-18T20:58:56.248Z,24.87
2018-09-18T21:01:24.478Z,24.23
2018-09-18T21:03:52.725Z,23.97
2018-09-18T21:06:20.967Z,23.57
2018-09-18T21:08:49.177Z,26.63
2018-09-18T21:11:17.821Z,27.23
2018-09-18T21:13:46.143Z,30.97
2018-09-18T21:16:14.436Z,21.67
2018-09-18T21:18:42.979Z,23.87
2018-09-18T21:21:11.217Z,23.23
2018-09-18T21:23:39.382Z,25.30
2018-09-18T21:26:10.871Z,27.57
2018-09-18T21:28:39.097Z,19.53
2018-09-18T21:31:07.609Z,20.77
2018-09-18T21:33:35.899Z,23.63
2018-09-18T21:36:04.216Z,32.87
2018-09-18T21:38:32.549Z,22.77
2018-09-18T21:41:00.748Z,26.10
2018-09-18T21:43:29.540Z,20.87
2018-09-18T21:45:57.842Z,23.80
2018-09-18T21:48:26.275Z,24.97
2018-09-18T21:50:54.853Z,23.53
2018-09-18T21:53:23.437Z,22.70
2018-09-18T21:55:51.692Z,24.43
2018-09-18T21:58:19.838Z,24.30
2018-09-18T22:00:48.331Z,23.67
2018-09-18T22:03:16.585Z,26.53
2018-09-18T22:05:45.079Z,26.87
2018-09-18T22:08:13.406Z,22.60
2018-09-18T22:10:41.667Z,21.87
2018-09-18T22:13:10.461Z,22.80
2018-09-18T22:15:39.121Z,24.90
2018-09-18T22:18:07.332Z,25.77
2018-09-18T22:20:36.011Z,24.97
2018-09-18T22:23:04.697Z,28.03
2018-09-18T22:25:33.214Z,24.87
2018-09-18T22:28:01.715Z,28.33
2018-09-18T22:30:30.240Z,28.83
2018-09-18T22:32:58.928Z,23.53
2018-09-18T22:35:27.502Z,21.13
2018-09-18T22:37:55.609Z,20.67
2018-09-18T22:40:24.053Z,23.57
2018-09-18T22:42:52.590Z,20.70
2018-09-18T22:45:20.859Z,21.43
2018-09-18T22:47:49.398Z,23.03
2018-09-18T22:50:17.782Z,18.37
2018-09-18T22:52:46.747Z,20.67
2018-09-18T22:55:14.939Z,21.40
2018-09-18T22:57:43.144Z,19.00
2018-09-18T23:00:11.374Z,21.73
2018-09-18T23:02:39.597Z,22.23
2018-09-18T23:05:08.192Z,17.53
2018-09-18T23:07:36.470Z,17.10
2018-09-18T23:10:04.841Z,18.57
2018-09-18T23:12:33.097Z,17.53
2018-09-18T23:15:01.349Z,17.13
2018-09-18T23:17:29.578Z,15.87
2018-09-18T23:19:57.753Z,14.53
2018-09-18T23:22:26.086Z,16.20
2018-09-18T23:24:54.435Z,15.47
2018-09-18T23:27:23.136Z,13.33
2018-09-18T23:29:51.930Z,15.87
2018-09-18T23:32:20.516Z,17.33
2018-09-18T23:34:48.981Z,17.73
2018-09-18T23:37:17.136Z,16.50
2018-09-18T23:39:45.379Z,17.43
2018-09-18T23:42:14.185Z,20.70
2018-09-18T23:44:42.858Z,13.77
2018-09-18T23:47:11.100Z,14.97
2018-09-18T23:49:39.668Z,14.93
2018-09-18T23:52:07.843Z,16.60
2018-09-18T23:54:36.628Z,16.60
2018-09-18T23:57:04.965Z,19.33
2018-09-18T23:59:33.180Z,16.50
